createdAt,value
2023-04-15T00:01:37.326Z,4.68
2023-04-15T00:03:41.459Z,4.55
2023-04-15T00:05:45.114Z,4.55
2023-04-15T00:07:48.725Z,4.63
2023-04-15T00:09:55.223Z,4.68
2023-04-15T00:12:00.118Z,4.47
2023-04-15T00:14:03.555Z,5.05
2023-04-15T00:16:08.441Z,4.85
2023-04-15T00:18:11.938Z,4.90
2023-04-15T00:20:15.708Z,4.68
2023-04-15T00:22:19.358Z,5.05
2023-04-15T00:24:23.358Z,5.03
2023-04-15T00:26:27.148Z,4.88
2023-04-15T00:28:32.285Z,5.30
2023-04-15T00:30:35.902Z,4.95
2023-04-15T00:32:39.791Z,5.47
2023-04-15T00:34:43.885Z,5.10
2023-04-15T00:36:47.376Z,5.30
2023-04-15T00:38:50.787Z,5.45
2023-04-15T00:40:55.213Z,5.10
2023-04-15T00:42:58.775Z,5.72
2023-04-15T00:45:03.938Z,5.65
2023-04-15T00:47:07.995Z,6.35
2023-04-15T00:49:13.142Z,6.15
2023-04-15T00:51:16.566Z,5.82
2023-04-15T00:53:20.322Z,5.88
2023-04-15T00:55:23.858Z,5.97
2023-04-15T00:57:29.106Z,5.68
2023-04-15T00:59:33.402Z,6.15
2023-04-15T01:01:39.051Z,6.30
2023-04-15T01:03:43.815Z,6.10
2023-04-15T01:05:47.404Z,6.40
2023-04-15T01:07:50.967Z,6.57
2023-04-15T01:09:54.552Z,6.97
2023-04-15T01:11:58.708Z,7.80
2023-04-15T01:14:02.581Z,7.55
2023-04-15T01:16:06.977Z,8.05
2023-04-15T01:18:12.357Z,8.10
2023-04-15T01:20:16.785Z,7.57
2023-04-15T01:22:21.179Z,8.07
2023-04-15T01:24:25.438Z,8.32
2023-04-15T01:26:30.855Z,8.15
2023-04-15T01:28:34.563Z,8.77
2023-04-15T01:30:38.611Z,9.70
2023-04-15T01:32:42.705Z,8.52
2023-04-15T01:35:05.008Z,8.45
2023-04-15T01:37:24.722Z,8.35
2023-04-15T01:39:28.103Z,8.55
2023-04-15T01:41:35.121Z,9.20
2023-04-15T01:43:39.768Z,8.95
2023-04-15T01:45:47.157Z,8.93
2023-04-15T01:47:51.877Z,8.90
2023-04-15T01:49:56.904Z,8.70
2023-04-15T01:52:01.787Z,8.90
2023-04-15T01:54:06.564Z,9.07
2023-04-15T01:56:11.442Z,8.90
2023-04-15T01:58:17.615Z,8.63
2023-04-15T02:00:22.443Z,9.30
2023-04-15T02:02:27.414Z,8.25
2023-04-15T02:04:34.350Z,9.32
2023-04-15T02:06:38.967Z,8.77
2023-04-15T02:08:43.682Z,8.45
2023-04-15T02:10:48.759Z,8.73
2023-04-15T02:12:54.166Z,8.18
2023-04-15T02:15:00.991Z,7.88
2023-04-15T02:17:08.535Z,7.85
2023-04-15T02:19:14.091Z,8.02
2023-04-15T02:21:19.275Z,7.70
2023-04-15T02:23:23.981Z,8.57
2023-04-15T02:25:28.662Z,8.13
2023-04-15T02:27:33.341Z,7.45
2023-04-15T02:29:37.991Z,8.15
2023-04-15T02:31:45.074Z,8.30
2023-04-15T02:33:49.766Z,7.72
2023-04-15T02:35:54.600Z,7.93
2023-04-15T02:37:59.409Z,8.07
2023-04-15T02:40:05.041Z,9.25
2023-04-15T02:42:09.729Z,8.38
2023-04-15T02:44:14.669Z,8.13
2023-04-15T02:46:22.077Z,8.73
2023-04-15T02:48:28.502Z,8.48
2023-04-15T02:50:33.322Z,8.27
2023-04-15T02:52:38.123Z,8.90
2023-04-15T02:54:42.839Z,8.52
2023-04-15T02:56:47.556Z,8.88
2023-04-15T02:58:52.383Z,9.55
2023-04-15T03:00:57.072Z,9.50
2023-04-15T03:03:04.804Z,9.10
2023-04-15T03:05:13.359Z,9.07
2023-04-15T03:07:22.270Z,10.15
2023-04-15T03:09:27.090Z,9.90
2023-04-15T03:11:33.610Z,9.90
2023-04-15T03:13:39.600Z,9.50
2023-04-15T03:15:49.726Z,9.18
2023-04-15T03:17:54.459Z,10.07
2023-04-15T03:19:59.196Z,9.40
2023-04-15T03:22:06.355Z,10.50
2023-04-15T03:24:11.268Z,11.13
2023-04-15T03:26:25.786Z,9.70
2023-04-15T03:28:30.852Z,11.70
2023-04-15T03:30:36.644Z,11.00
2023-04-15T03:32:41.516Z,11.88
2023-04-15T03:34:46.672Z,11.20
2023-04-15T03:36:51.426Z,12.20
2023-04-15T03:38:57.980Z,12.10
2023-04-15T03:41:02.594Z,12.40
2023-04-15T03:43:07.252Z,12.52
2023-04-15T03:45:12.885Z,13.35
2023-04-15T03:47:17.540Z,13.13
2023-04-15T03:49:23.141Z,13.20
2023-04-15T03:51:27.754Z,12.95
2023-04-15T03:53:32.430Z,14.02
2023-04-15T03:55:38.504Z,14.23
2023-04-15T03:57:43.191Z,14.70
2023-04-15T03:59:47.870Z,14.68
2023-04-15T04:01:52.557Z,16.30
2023-04-15T04:03:57.472Z,15.55
2023-04-15T04:06:02.242Z,15.93
2023-04-15T04:08:07.585Z,15.90
2023-04-15T04:10:12.638Z,16.98
2023-04-15T04:12:18.759Z,16.75
2023-04-15T04:14:29.351Z,17.33
2023-04-15T04:16:34.086Z,17.53
2023-04-15T04:18:38.944Z,17.60
2023-04-15T04:20:43.796Z,17.73
2023-04-15T04:22:48.563Z,17.00
2023-04-15T04:24:53.307Z,18.95
2023-04-15T04:26:58.214Z,18.90
2023-04-15T04:29:04.531Z,18.08
2023-04-15T04:31:09.399Z,18.23
2023-04-15T04:33:14.286Z,18.23
2023-04-15T04:35:19.073Z,19.48
2023-04-15T04:37:24.752Z,18.52
2023-04-15T04:39:29.583Z,19.35
2023-04-15T04:41:34.267Z,19.52
2023-04-15T04:43:38.956Z,18.83
2023-04-15T04:45:45.258Z,19.35
2023-04-15T04:47:50.131Z,20.02
2023-04-15T04:49:54.878Z,19.70
2023-04-15T04:51:59.757Z,19.88
2023-04-15T04:54:05.137Z,20.58
2023-04-15T04:56:10.337Z,21.20
2023-04-15T04:58:15.082Z,21.42
2023-04-15T05:00:20.441Z,22.58
2023-04-15T05:02:27.565Z,22.15
2023-04-15T05:04:32.602Z,22.63
2023-04-15T05:06:37.604Z,22.77
2023-04-15T05:08:42.614Z,23.65
2023-04-15T05:10:47.528Z,23.92
2023-04-15T05:12:52.733Z,23.00
2023-04-15T05:14:57.641Z,23.40
2023-04-15T05:17:02.294Z,23.58
2023-04-15T05:19:08.588Z,24.23
2023-04-15T05:21:13.618Z,23.52
2023-04-15T05:23:18.977Z,23.75
2023-04-15T05:25:23.676Z,25.15
2023-04-15T05:27:28.368Z,24.27
2023-04-15T05:29:33.068Z,24.60
2023-04-15T05:31:38.321Z,26.58
2023-04-15T05:33:43.442Z,24.98
2023-04-15T05:35:49.567Z,25.20
2023-04-15T05:37:54.283Z,25.73
2023-04-15T05:40:00.495Z,25.88
2023-04-15T05:42:07.586Z,25.83
2023-04-15T05:44:13.153Z,24.85
2023-04-15T05:46:18.680Z,24.83
2023-04-15T05:48:23.431Z,25.10
2023-04-15T05:50:28.157Z,24.80
2023-04-15T05:52:34.480Z,24.42
2023-04-15T05:54:39.255Z,25.40
2023-04-15T05:56:44.044Z,25.25
2023-04-15T05:58:48.827Z,24.90
2023-04-15T06:00:55.114Z,25.33
2023-04-15T06:03:00.430Z,25.73
2023-04-15T06:05:09.817Z,25.80
2023-04-15T06:07:14.735Z,26.02
2023-04-15T06:09:21.052Z,25.38
2023-04-15T06:11:26.870Z,25.15
2023-04-15T06:13:31.612Z,27.13
2023-04-15T06:15:36.307Z,27.70
2023-04-15T06:17:41.070Z,27.35
2023-04-15T06:19:45.998Z,27.73
2023-04-15T06:21:50.755Z,28.08
2023-04-15T06:23:56.780Z,27.45
2023-04-15T06:26:06.429Z,28.75
2023-04-15T06:28:19.310Z,28.70
2023-04-15T06:30:24.549Z,28.33
2023-04-15T06:32:38.063Z,29.40
2023-04-15T06:34:52.215Z,31.35
2023-04-15T06:36:59.100Z,31.08
2023-04-15T06:39:09.233Z,31.05
2023-04-15T06:41:17.575Z,30.67
2023-04-15T06:43:25.402Z,30.65
2023-04-15T06:45:32.486Z,30.63
2023-04-15T06:47:38.132Z,30.60
2023-04-15T06:49:45.032Z,31.10
2023-04-15T06:51:51.496Z,31.50
2023-04-15T06:53:57.288Z,30.58
2023-04-15T06:56:02.077Z,31.65
2023-04-15T06:58:08.256Z,31.70
2023-04-15T07:00:14.074Z,32.33
2023-04-15T07:02:18.868Z,31.73
2023-04-15T07:04:24.590Z,32.65
2023-04-15T07:06:29.425Z,33.17
2023-04-15T07:08:34.146Z,32.65
2023-04-15T07:10:38.878Z,33.33
2023-04-15T07:12:43.689Z,34.50
2023-04-15T07:14:49.797Z,33.97
2023-04-15T07:16:54.583Z,32.78
2023-04-15T07:18:59.445Z,32.90
2023-04-15T07:21:04.534Z,32.83
2023-04-15T07:23:09.415Z,33.28
2023-04-15T07:25:14.141Z,32.45
2023-04-15T07:27:18.869Z,33.45
2023-04-15T07:29:23.587Z,33.33
2023-04-15T07:31:29.809Z,33.30
2023-04-15T07:33:34.552Z,34.10
2023-04-15T07:35:39.352Z,33.53
2023-04-15T07:37:44.533Z,34.28
2023-04-15T07:39:49.186Z,33.65
2023-04-15T07:41:54.082Z,33.45
2023-04-15T07:43:59.057Z,33.63
2023-04-15T07:46:03.743Z,33.42
2023-04-15T07:48:09.935Z,34.08
2023-04-15T07:50:14.655Z,32.90
2023-04-15T07:52:19.497Z,34.15
2023-04-15T07:54:24.255Z,34.33
2023-04-15T07:56:29.045Z,33.13
2023-04-15T07:58:34.794Z,34.20
2023-04-15T08:00:40.278Z,34.78
2023-04-15T08:02:47.021Z,34.90
2023-04-15T08:04:53.438Z,35.30
2023-04-15T08:06:58.577Z,35.30
2023-04-15T08:09:03.638Z,35.20
2023-04-15T08:11:08.653Z,35.65
2023-04-15T08:13:13.611Z,33.58
2023-04-15T08:15:18.463Z,34.78
2023-04-15T08:17:23.229Z,35.47
2023-04-15T08:19:28.151Z,34.22
2023-04-15T08:21:34.296Z,35.78
2023-04-15T08:23:39.360Z,35.20
2023-04-15T08:25:44.055Z,35.60
2023-04-15T08:27:48.720Z,35.50
2023-04-15T08:29:54.172Z,36.58
2023-04-15T08:31:59.141Z,37.22
2023-04-15T08:34:03.923Z,37.30
2023-04-15T08:36:09.430Z,36.20
2023-04-15T08:38:15.657Z,35.15
2023-04-15T08:40:20.825Z,35.95
2023-04-15T08:42:32.613Z,36.50
2023-04-15T08:44:38.403Z,35.97
2023-04-15T08:46:44.731Z,36.58
2023-04-15T08:48:51.135Z,35.72
2023-04-15T08:50:56.165Z,36.75
2023-04-15T08:53:01.480Z,34.97
2023-04-15T08:55:10.680Z,35.15
2023-04-15T08:57:16.395Z,35.15
2023-04-15T08:59:22.106Z,35.63
2023-04-15T09:01:27.203Z,35.05
2023-04-15T09:03:33.652Z,35.60
2023-04-15T09:05:39.663Z,35.47
2023-04-15T09:07:44.591Z,35.60
2023-04-15T09:09:50.470Z,35.15
2023-04-15T09:11:56.934Z,35.00
2023-04-15T09:14:01.632Z,34.38
2023-04-15T09:16:08.477Z,34.47
2023-04-15T09:18:13.819Z,35.28
2023-04-15T09:20:19.933Z,34.05
2023-04-15T09:22:24.762Z,35.10
2023-04-15T09:24:38.971Z,34.13
2023-04-15T09:26:44.176Z,34.47
2023-04-15T09:28:50.249Z,33.35
2023-04-15T09:30:58.339Z,33.22
2023-04-15T09:33:08.159Z,33.88
2023-04-15T09:35:14.122Z,33.47
2023-04-15T09:37:31.826Z,32.97
2023-04-15T09:39:51.087Z,36.17
2023-04-15T09:42:08.770Z,34.72
2023-04-15T09:44:25.714Z,34.13
2023-04-15T09:46:43.819Z,36.85
2023-04-15T09:48:48.540Z,37.80
2023-04-15T09:50:54.110Z,36.83
2023-04-15T09:52:59.707Z,36.25
2023-04-15T09:55:04.513Z,36.90
2023-04-15T09:57:10.206Z,34.90
2023-04-15T09:59:15.733Z,33.35
2023-04-15T10:01:22.918Z,34.38
2023-04-15T10:03:30.413Z,33.50
2023-04-15T10:05:36.192Z,32.22
2023-04-15T10:07:42.955Z,33.22
2023-04-15T10:09:48.113Z,31.17
2023-04-15T10:11:53.523Z,31.42
2023-04-15T10:13:59.092Z,31.73
2023-04-15T10:16:07.980Z,30.73
2023-04-15T10:18:17.233Z,29.33
2023-04-15T10:20:23.975Z,30.02
2023-04-15T10:22:29.900Z,30.27
2023-04-15T10:24:34.895Z,32.17
2023-04-15T10:26:39.943Z,30.50
2023-04-15T10:28:44.671Z,31.25
2023-04-15T10:30:50.128Z,29.65
2023-04-15T10:32:55.294Z,28.80
2023-04-15T10:35:02.490Z,27.67
2023-04-15T10:37:11.109Z,27.30
2023-04-15T10:39:41.188Z,26.15
2023-04-15T10:41:45.875Z,28.15
2023-04-15T10:43:53.094Z,28.65
2023-04-15T10:45:57.881Z,26.98
2023-04-15T10:48:04.532Z,28.23
2023-04-15T10:50:11.626Z,28.63
2023-04-15T10:52:17.930Z,27.30
2023-04-15T10:54:34.798Z,24.60
2023-04-15T10:56:39.627Z,23.40
2023-04-15T10:58:45.553Z,23.45
2023-04-15T11:00:53.565Z,20.45
2023-04-15T11:02:59.670Z,20.02
2023-04-15T11:05:04.513Z,19.63
2023-04-15T11:07:11.114Z,19.60
2023-04-15T11:09:33.329Z,18.10
2023-04-15T11:12:09.849Z,17.85
2023-04-15T11:14:17.292Z,15.18
2023-04-15T11:16:23.109Z,14.52
2023-04-15T11:18:30.656Z,14.07
2023-04-15T11:20:35.403Z,14.80
2023-04-15T11:22:49.159Z,15.25
2023-04-15T11:24:54.088Z,15.00
2023-04-15T11:26:59.969Z,12.15
2023-04-15T11:29:05.388Z,11.80
2023-04-15T11:31:12.786Z,10.88
2023-04-15T11:33:18.006Z,10.85
2023-04-15T11:35:23.183Z,10.18
2023-04-15T11:37:31.781Z,10.57
2023-04-15T11:39:38.909Z,10.75
2023-04-15T11:41:44.242Z,10.27
2023-04-15T11:43:48.944Z,10.35
2023-04-15T11:45:55.666Z,10.75
2023-04-15T11:48:07.895Z,10.52
2023-04-15T11:50:16.734Z,10.50
2023-04-15T11:52:20.232Z,10.10
2023-04-15T11:54:23.914Z,10.38
2023-04-15T11:56:28.826Z,10.00
2023-04-15T11:58:32.543Z,8.82
2023-04-15T12:00:36.861Z,9.95
2023-04-15T12:02:40.526Z,9.20
2023-04-15T12:04:46.381Z,9.52
2023-04-15T12:06:50.124Z,9.20
2023-04-15T12:09:05.868Z,8.75
2023-04-15T12:11:09.304Z,9.15
2023-04-15T12:13:14.181Z,8.93
2023-04-15T12:15:17.877Z,9.32
2023-04-15T12:17:21.410Z,10.30
2023-04-15T12:19:27.675Z,9.40
2023-04-15T12:21:37.164Z,9.32
2023-04-15T12:23:41.668Z,9.40
2023-04-15T12:25:45.114Z,9.77
2023-04-15T12:27:53.539Z,10.07
2023-04-15T12:30:08.119Z,8.93
2023-04-15T12:32:13.188Z,9.10
2023-04-15T12:34:16.974Z,9.50
2023-04-15T12:36:20.370Z,9.13
2023-04-15T12:38:23.844Z,9.70
2023-04-15T12:40:27.311Z,9.88
2023-04-15T12:42:30.677Z,9.32
2023-04-15T12:44:34.686Z,9.05
2023-04-15T12:46:39.678Z,9.75
2023-04-15T12:48:43.587Z,9.68
2023-04-15T12:50:47.198Z,9.55
2023-04-15T12:52:50.536Z,10.38
2023-04-15T12:54:54.876Z,10.20
2023-04-15T12:56:58.495Z,9.32
2023-04-15T12:59:02.279Z,9.55
2023-04-15T13:01:06.624Z,9.45
2023-04-15T13:03:11.657Z,9.90
2023-04-15T13:05:15.980Z,9.82
2023-04-15T13:07:19.452Z,9.25
2023-04-15T13:09:22.902Z,9.73
2023-04-15T13:11:26.564Z,9.77
2023-04-15T13:13:32.008Z,9.25
2023-04-15T13:15:35.795Z,9.52
2023-04-15T13:17:39.684Z,9.55
2023-04-15T13:19:44.677Z,9.80
2023-04-15T13:21:48.340Z,9.75
2023-04-15T13:23:52.381Z,9.73
2023-04-15T13:25:56.088Z,9.95
2023-04-15T13:28:01.305Z,9.30
2023-04-15T13:30:07.684Z,9.43
2023-04-15T13:32:12.214Z,9.23
2023-04-15T13:34:15.689Z,9.50
2023-04-15T13:36:21.224Z,9.73
2023-04-15T13:38:26.249Z,9.10
2023-04-15T13:40:29.942Z,9.02
2023-04-15T13:42:33.422Z,9.65
2023-04-15T13:44:37.121Z,8.75
2023-04-15T13:46:42.063Z,7.80
2023-04-15T13:48:45.541Z,7.55
2023-04-15T13:50:49.169Z,8.18
2023-04-15T13:52:54.102Z,7.45
2023-04-15T13:55:06.970Z,8.10
2023-04-15T13:57:20.878Z,7.82
2023-04-15T13:59:24.345Z,7.50
2023-04-15T14:01:27.953Z,6.90
2023-04-15T14:03:31.705Z,7.25
2023-04-15T14:05:35.681Z,7.32
2023-04-15T14:07:39.307Z,7.03
2023-04-15T14:09:44.786Z,7.40
2023-04-15T14:11:48.214Z,7.43
2023-04-15T14:13:51.738Z,7.32
2023-04-15T14:15:55.265Z,7.43
2023-04-15T14:17:59.144Z,7.13
2023-04-15T14:20:02.893Z,7.70
2023-04-15T14:22:06.514Z,7.40
2023-04-15T14:24:10.003Z,7.78
2023-04-15T14:26:15.008Z,8.60
2023-04-15T14:28:18.518Z,7.53
2023-04-15T14:30:22.072Z,7.25
2023-04-15T14:32:26.634Z,8.05
2023-04-15T14:35:00.712Z,7.57
2023-04-15T14:37:05.179Z,8.60
2023-04-15T14:39:09.334Z,9.40
2023-04-15T14:41:14.509Z,9.30
2023-04-15T14:43:18.259Z,9.13
2023-04-15T14:45:21.751Z,9.15
2023-04-15T14:47:26.320Z,9.57
2023-04-15T15:14:11.430Z,8.98
2023-04-15T15:16:16.139Z,8.50
2023-04-15T15:18:19.932Z,8.77
2023-04-15T15:20:23.653Z,8.35
2023-04-15T15:22:27.210Z,8.70
2023-04-15T15:24:30.898Z,8.27
2023-04-15T15:26:34.417Z,8.48
2023-04-15T15:28:39.277Z,8.60
2023-04-15T15:30:42.742Z,8.05
2023-04-15T15:32:46.284Z,8.55
2023-04-15T15:34:49.816Z,9.05
2023-04-15T15:36:53.296Z,9.43
2023-04-15T15:38:58.556Z,9.55
2023-04-15T15:41:03.092Z,8.63
2023-04-15T15:43:06.555Z,8.98
2023-04-15T15:45:12.274Z,8.38
2023-04-15T15:47:15.788Z,8.43
2023-04-15T15:49:19.921Z,9.20
2023-04-15T15:51:23.398Z,8.50
2023-04-15T15:53:26.884Z,9.90
2023-04-15T15:55:30.651Z,9.07
2023-04-15T15:57:34.188Z,8.85
2023-04-15T15:59:41.178Z,9.13
2023-04-15T16:01:46.174Z,9.40
2023-04-15T16:03:49.896Z,9.68
2023-04-15T16:05:53.412Z,9.60
2023-04-15T16:07:56.823Z,9.15
2023-04-15T16:10:00.317Z,8.80
2023-04-15T16:12:04.046Z,9.20
2023-04-15T16:14:07.609Z,9.00
2023-04-15T16:16:11.397Z,8.80
2023-04-15T16:18:16.292Z,9.38
2023-04-15T16:20:19.981Z,9.25
2023-04-15T16:22:23.413Z,9.55
2023-04-15T16:24:28.061Z,10.10
2023-04-15T16:26:32.392Z,10.93
2023-04-15T16:28:36.113Z,10.25
2023-04-15T16:30:41.378Z,11.10
2023-04-15T16:32:44.942Z,11.45
2023-04-15T16:34:49.821Z,11.50
2023-04-15T16:36:53.457Z,11.50
2023-04-15T16:38:56.983Z,10.70
2023-04-15T16:41:02.650Z,11.23
2023-04-15T16:43:07.420Z,11.00
2023-04-15T16:45:11.785Z,11.18
2023-04-15T16:47:15.294Z,11.60
2023-04-15T16:49:19.364Z,11.30
2023-04-15T16:51:24.278Z,11.57
2023-04-15T16:53:27.775Z,12.15
2023-04-15T16:55:31.364Z,12.07
2023-04-15T16:58:00.456Z,11.65
2023-04-15T16:59:58.805Z,12.10
2023-04-15T17:02:02.899Z,11.98
2023-04-15T17:04:09.162Z,12.13
2023-04-15T17:06:13.293Z,13.07
2023-04-15T17:08:18.211Z,13.55
2023-04-15T17:10:21.752Z,13.35
2023-04-15T17:12:25.171Z,12.77
2023-04-15T17:14:29.107Z,13.85
2023-04-15T17:16:34.904Z,13.30
2023-04-15T17:18:39.777Z,14.15
2023-04-15T17:20:50.974Z,13.68
2023-04-15T17:22:54.796Z,14.65
2023-04-15T17:25:02.857Z,13.93
2023-04-15T17:27:09.555Z,13.82
2023-04-15T17:29:14.133Z,13.75
2023-04-15T17:31:22.794Z,13.23
2023-04-15T17:34:00.277Z,13.80
2023-04-15T17:36:30.979Z,13.70
2023-04-15T17:38:54.457Z,13.48
2023-04-15T17:41:19.363Z,14.10
2023-04-15T17:43:42.882Z,14.45
2023-04-15T17:46:08.445Z,14.45
2023-04-15T17:48:31.901Z,14.85
2023-04-15T17:50:55.539Z,15.38
2023-04-15T17:53:18.980Z,15.15
2023-04-15T17:55:42.418Z,15.45
2023-04-15T17:58:07.273Z,15.57
2023-04-15T18:00:30.621Z,16.10
2023-04-15T18:02:54.180Z,14.98
2023-04-15T18:05:19.821Z,15.93
2023-04-15T18:07:43.398Z,15.98
2023-04-15T18:10:08.789Z,16.30
2023-04-15T18:12:32.172Z,17.15
2023-04-15T18:14:57.062Z,16.25
2023-04-15T18:17:20.821Z,17.38
2023-04-15T18:19:45.952Z,16.13
2023-04-15T18:21:49.362Z,15.98
2023-04-15T18:23:52.748Z,17.50
2023-04-15T18:25:57.349Z,18.30
2023-04-15T18:28:00.982Z,16.75
2023-04-15T18:30:07.271Z,18.20
2023-04-15T18:32:11.249Z,16.92
2023-04-15T18:34:14.814Z,18.15
2023-04-15T18:36:18.387Z,17.33
2023-04-15T18:38:21.912Z,17.73
2023-04-15T18:40:25.392Z,16.70
2023-04-15T18:42:28.959Z,16.63
2023-04-15T18:44:32.695Z,16.10
2023-04-15T18:46:37.622Z,16.65
2023-04-15T18:48:41.258Z,17.10
2023-04-15T18:50:45.103Z,16.33
2023-04-15T18:52:48.689Z,16.02
2023-04-15T18:54:52.189Z,15.95
2023-04-15T18:56:56.619Z,16.35
2023-04-15T18:59:27.566Z,17.30
2023-04-15T19:01:23.660Z,17.30
2023-04-15T19:03:29.330Z,17.23
2023-04-15T19:05:33.200Z,17.95
2023-04-15T19:07:38.864Z,18.17
2023-04-15T19:09:43.396Z,17.80
2023-04-15T19:11:47.713Z,17.35
2023-04-15T19:13:53.584Z,16.48
2023-04-15T19:16:04.072Z,17.42
2023-04-15T19:18:14.850Z,17.65
2023-04-15T19:20:22.747Z,17.60
2023-04-15T19:22:31.903Z,16.25
2023-04-15T19:24:38.688Z,16.08
2023-04-15T19:26:42.993Z,16.08
2023-04-15T19:28:47.119Z,16.33
2023-04-15T19:30:52.431Z,16.42
2023-04-15T19:32:55.993Z,15.60
2023-04-15T19:34:59.571Z,15.32
2023-04-15T19:37:04.521Z,15.02
2023-04-15T19:39:08.258Z,15.30
2023-04-15T19:41:13.967Z,14.77
2023-04-15T19:43:17.933Z,16.17
2023-04-15T19:45:21.333Z,15.65
2023-04-15T19:47:24.828Z,16.70
2023-04-15T19:49:28.356Z,15.00
2023-04-15T19:51:31.934Z,15.63
2023-04-15T19:53:36.920Z,15.15
2023-04-15T19:55:40.513Z,16.08
2023-04-15T19:57:45.415Z,14.98
2023-04-15T19:59:52.431Z,15.38
2023-04-15T20:01:56.165Z,16.10
2023-04-15T20:04:00.151Z,16.55
2023-04-15T20:06:04.075Z,15.82
2023-04-15T20:08:07.808Z,16.00
2023-04-15T20:10:13.395Z,14.73
2023-04-15T20:12:49.303Z,15.60
2023-04-15T20:14:41.358Z,14.13
2023-04-15T20:16:44.917Z,14.77
2023-04-15T20:18:48.362Z,15.20
2023-04-15T20:20:52.014Z,15.55
2023-04-15T20:22:55.700Z,15.23
2023-04-15T20:24:59.202Z,15.55
2023-04-15T20:27:04.110Z,16.02
2023-04-15T20:29:07.906Z,15.90
2023-04-15T20:31:11.838Z,15.30
2023-04-15T20:33:15.544Z,15.63
2023-04-15T20:35:19.919Z,15.23
2023-04-15T20:37:23.449Z,15.63
2023-04-15T20:39:27.131Z,15.23
2023-04-15T20:41:30.676Z,15.48
2023-04-15T20:43:35.620Z,14.82
2023-04-15T20:45:39.475Z,14.98
2023-04-15T20:47:43.182Z,15.55
2023-04-15T20:49:47.524Z,15.80
2023-04-15T20:51:50.977Z,15.75
2023-04-15T20:53:55.636Z,16.15
2023-04-15T20:56:00.326Z,16.38
2023-04-15T20:58:03.769Z,16.00
2023-04-15T21:00:11.045Z,16.35
2023-04-15T21:02:14.757Z,16.02
2023-04-15T21:04:18.596Z,16.50
2023-04-15T21:06:22.153Z,16.52
2023-04-15T21:08:30.046Z,16.35
2023-04-15T21:10:35.407Z,16.15
2023-04-15T21:12:40.952Z,15.48
2023-04-15T21:14:44.353Z,16.17
2023-04-15T21:16:49.259Z,15.75
2023-04-15T21:18:52.722Z,16.73
2023-04-15T21:20:59.952Z,16.40
2023-04-15T21:23:03.450Z,16.85
2023-04-15T21:25:07.888Z,16.25
2023-04-15T21:27:11.569Z,16.60
2023-04-15T21:29:15.092Z,16.88
2023-04-15T21:31:18.898Z,17.15
2023-04-15T21:33:24.106Z,17.23
2023-04-15T21:35:28.741Z,17.52
2023-04-15T21:37:32.634Z,17.10
2023-04-15T21:39:36.169Z,17.15
2023-04-15T21:41:39.649Z,17.65
2023-04-15T21:43:43.146Z,17.42
2023-04-15T21:46:21.374Z,17.13
2023-04-15T21:48:10.122Z,17.38
2023-04-15T21:50:15.231Z,16.08
2023-04-15T21:52:18.909Z,17.58
2023-04-15T21:54:22.416Z,17.98
2023-04-15T21:56:26.528Z,17.63
2023-04-15T21:58:30.011Z,17.60
2023-04-15T22:00:34.265Z,17.38
2023-04-15T22:02:38.516Z,18.58
2023-04-15T22:04:42.039Z,19.15
2023-04-15T22:06:47.038Z,17.27
2023-04-15T22:08:57.062Z,17.65
2023-04-15T22:11:01.369Z,17.83
2023-04-15T22:13:08.590Z,16.95
2023-04-15T22:15:12.197Z,17.60
2023-04-15T22:17:15.647Z,18.25
2023-04-15T22:19:19.251Z,17.23
2023-04-15T22:21:22.777Z,18.15
2023-04-15T22:23:27.686Z,17.38
2023-04-15T22:25:31.706Z,17.63
2023-04-15T22:27:35.229Z,17.23
2023-04-15T22:29:38.932Z,18.02
2023-04-15T22:31:42.479Z,17.58
2023-04-15T22:33:46.127Z,17.50
2023-04-15T22:35:49.636Z,18.45
2023-04-15T22:37:53.929Z,18.27
2023-04-15T22:39:58.792Z,17.23
2023-04-15T22:42:02.561Z,18.25
2023-04-15T22:44:06.076Z,18.40
2023-04-15T22:46:09.535Z,18.35
2023-04-15T22:48:13.104Z,18.50
2023-04-15T22:50:16.604Z,17.38
2023-04-15T22:52:30.061Z,18.17
2023-04-15T22:54:34.406Z,18.42
2023-04-15T22:56:39.273Z,19.05
2023-04-15T22:58:42.729Z,18.88
2023-04-15T23:00:46.323Z,17.80
2023-04-15T23:02:49.924Z,18.73
2023-04-15T23:04:53.561Z,18.95
2023-04-15T23:06:57.297Z,18.08
2023-04-15T23:09:00.871Z,17.98
2023-04-15T23:11:04.319Z,18.55
2023-04-15T23:13:09.199Z,18.65
2023-04-15T23:15:13.178Z,18.67
2023-04-15T23:17:16.729Z,18.35
2023-04-15T23:19:20.331Z,17.90
2023-04-15T23:21:25.964Z,19.60
2023-04-15T23:23:29.591Z,17.75
2023-04-15T23:25:33.048Z,18.15
2023-04-15T23:27:39.164Z,18.50
2023-04-15T23:29:44.183Z,18.20
2023-04-15T23:31:47.681Z,18.13
2023-04-15T23:33:51.273Z,19.40
2023-04-15T23:35:54.895Z,19.35
2023-04-15T23:37:58.396Z,17.20
2023-04-15T23:40:01.870Z,18.17
2023-04-15T23:42:05.498Z,18.23
2023-04-15T23:44:09.820Z,18.73
2023-04-15T23:46:14.747Z,17.50
2023-04-15T23:48:18.272Z,17.92
2023-04-15T23:50:21.728Z,17.92
2023-04-15T23:52:25.162Z,18.20
2023-04-15T23:54:28.594Z,18.65
2023-04-15T23:56:32.264Z,17.58
2023-04-15T23:58:35.778Z,17.60
